createdAt,value
2024-01-09T00:01:25.889Z,9.07
2024-01-09T00:03:52.849Z,10.80
2024-01-09T00:06:21.053Z,12.27
2024-01-09T00:08:48.180Z,12.47
2024-01-09T00:11:15.750Z,8.30
2024-01-09T00:13:43.049Z,10.73
2024-01-09T00:16:09.707Z,12.30
2024-01-09T00:18:36.543Z,12.63
2024-01-09T00:21:03.513Z,11.07
2024-01-09T00:23:30.260Z,10.60
2024-01-09T00:25:56.971Z,11.77
2024-01-09T00:28:23.814Z,13.97
2024-01-09T00:30:50.601Z,10.30
2024-01-09T00:33:17.575Z,10.73
2024-01-09T00:35:44.732Z,9.00
2024-01-09T00:38:11.559Z,15.07
2024-01-09T00:40:38.288Z,9.50
2024-01-09T00:43:04.925Z,11.80
2024-01-09T00:45:31.635Z,12.80
2024-01-09T00:47:58.401Z,12.50
2024-01-09T00:50:25.276Z,10.67
2024-01-09T00:52:51.946Z,9.30
2024-01-09T00:55:18.573Z,12.33
2024-01-09T00:57:45.261Z,13.70
2024-01-09T01:00:12.539Z,15.63
2024-01-09T01:02:39.229Z,12.03
2024-01-09T01:05:06.544Z,10.93
2024-01-09T01:07:33.212Z,11.57
2024-01-09T01:09:59.901Z,14.10
2024-01-09T01:12:27.378Z,12.33
2024-01-09T01:14:54.048Z,11.90
2024-01-09T01:17:20.791Z,11.67
2024-01-09T01:19:47.499Z,10.00
2024-01-09T01:22:14.247Z,11.13
2024-01-09T01:24:40.974Z,13.13
2024-01-09T01:27:07.627Z,12.10
2024-01-09T01:29:34.326Z,12.80
2024-01-09T01:32:01.032Z,14.63
2024-01-09T01:34:27.733Z,12.23
2024-01-09T01:36:54.391Z,11.43
2024-01-09T01:39:21.027Z,11.77
2024-01-09T01:41:47.723Z,14.67
2024-01-09T01:44:19.295Z,14.70
2024-01-09T01:46:47.960Z,12.17
2024-01-09T01:49:16.998Z,9.93
2024-01-09T01:51:45.467Z,17.17
2024-01-09T01:54:15.779Z,11.67
2024-01-09T01:56:43.101Z,13.77
2024-01-09T01:59:11.711Z,15.70
2024-01-09T02:01:39.430Z,13.38
2024-01-09T02:04:07.838Z,15.30
2024-01-09T02:06:34.963Z,10.65
2024-01-09T02:09:02.680Z,11.40
2024-01-09T02:11:29.902Z,13.63
2024-01-09T02:13:56.568Z,10.77
2024-01-09T02:18:50.575Z,10.93
2024-01-09T02:21:17.267Z,10.37
2024-01-09T02:23:45.542Z,10.67
2024-01-09T02:26:33.287Z,9.67
2024-01-09T02:29:09.889Z,10.20
2024-01-09T02:31:37.002Z,10.30
2024-01-09T02:34:05.995Z,12.50
2024-01-09T02:36:33.619Z,15.23
2024-01-09T02:39:00.285Z,12.07
2024-01-09T02:41:26.946Z,9.23
2024-01-09T02:43:53.682Z,12.70
2024-01-09T02:46:20.424Z,9.73
2024-01-09T02:48:47.232Z,8.70
2024-01-09T02:51:13.936Z,10.63
2024-01-09T02:53:40.630Z,14.80
2024-01-09T02:56:07.505Z,9.30
2024-01-09T02:58:34.344Z,10.67
2024-01-09T03:01:02.602Z,11.97
2024-01-09T03:03:29.459Z,7.37
2024-01-09T03:05:56.455Z,10.03
2024-01-09T03:08:23.263Z,10.30
2024-01-09T03:10:49.895Z,11.33
2024-01-09T03:13:16.534Z,9.63
2024-01-09T03:15:43.266Z,6.93
2024-01-09T03:18:09.977Z,10.97
2024-01-09T03:20:36.792Z,9.07
2024-01-09T03:23:03.533Z,10.73
2024-01-09T03:25:30.261Z,8.20
2024-01-09T03:27:57.027Z,6.33
2024-01-09T03:30:23.932Z,7.47
2024-01-09T03:32:50.764Z,10.70
2024-01-09T03:35:17.620Z,9.03
2024-01-09T03:37:44.377Z,11.87
2024-01-09T03:40:12.248Z,6.77
2024-01-09T03:42:38.913Z,7.47
2024-01-09T03:45:07.505Z,9.07
2024-01-09T03:47:34.320Z,10.25
2024-01-09T03:50:00.979Z,8.33
2024-01-09T03:52:27.669Z,8.97
2024-01-09T03:54:54.288Z,7.57
2024-01-09T03:57:20.954Z,5.67
2024-01-09T03:59:47.604Z,6.43
2024-01-09T04:02:14.286Z,12.10
2024-01-09T04:04:40.938Z,6.87
2024-01-09T04:07:07.586Z,8.50
2024-01-09T04:09:34.189Z,7.80
2024-01-09T04:12:00.819Z,9.23
2024-01-09T04:14:27.499Z,5.83
2024-01-09T04:16:54.160Z,9.53
2024-01-09T04:19:20.848Z,10.37
2024-01-09T04:21:47.563Z,9.53
2024-01-09T04:24:14.206Z,8.47
2024-01-09T04:26:40.902Z,7.13
2024-01-09T04:29:07.613Z,6.47
2024-01-09T04:31:34.304Z,8.90
2024-01-09T04:34:01.053Z,12.70
2024-01-09T04:36:27.770Z,7.57
2024-01-09T04:38:55.016Z,7.60
2024-01-09T04:41:21.713Z,7.90
2024-01-09T04:43:48.377Z,6.60
2024-01-09T04:46:15.077Z,8.40
2024-01-09T04:48:41.911Z,9.93
2024-01-09T04:51:08.915Z,7.17
2024-01-09T04:53:36.155Z,5.03
2024-01-09T04:56:03.110Z,7.77
2024-01-09T04:58:30.990Z,14.43
2024-01-09T05:00:57.929Z,6.67
2024-01-09T05:03:24.769Z,8.70
2024-01-09T05:05:52.133Z,6.63
2024-01-09T05:08:19.161Z,4.87
2024-01-09T05:10:46.447Z,6.00
2024-01-09T05:13:13.617Z,8.80
2024-01-09T05:15:40.290Z,5.60
2024-01-09T05:18:07.234Z,8.77
2024-01-09T05:20:34.158Z,5.90
2024-01-09T05:23:00.969Z,5.07
2024-01-09T05:25:27.633Z,6.30
2024-01-09T05:27:54.274Z,5.72
2024-01-09T05:30:20.941Z,6.60
2024-01-09T05:32:47.705Z,7.05
2024-01-09T05:35:14.535Z,5.28
2024-01-09T05:37:41.286Z,6.83
2024-01-09T05:40:08.689Z,5.95
2024-01-09T05:42:35.341Z,9.68
2024-01-09T05:45:02.065Z,4.38
2024-01-09T05:47:28.781Z,6.85
2024-01-09T05:49:55.443Z,4.32
2024-01-09T05:52:22.148Z,4.93
2024-01-09T05:54:48.790Z,5.28
2024-01-09T05:57:15.483Z,6.38
2024-01-09T05:59:42.148Z,5.07
2024-01-09T06:02:08.816Z,6.65
2024-01-09T06:04:35.496Z,9.25
2024-01-09T06:07:02.551Z,3.97
2024-01-09T06:09:29.342Z,6.72
2024-01-09T06:11:56.076Z,7.80
2024-01-09T06:14:22.787Z,6.68
2024-01-09T06:16:49.499Z,5.35
2024-01-09T06:19:16.344Z,6.47
2024-01-09T06:21:43.128Z,4.85
2024-01-09T06:24:09.755Z,7.55
2024-01-09T06:26:36.659Z,4.80
2024-01-09T06:29:03.379Z,7.83
2024-01-09T06:31:30.094Z,6.80
2024-01-09T06:33:56.922Z,6.75
2024-01-09T06:36:23.720Z,8.68
2024-01-09T06:38:50.462Z,6.57
2024-01-09T06:41:17.292Z,7.97
2024-01-09T06:43:44.078Z,6.95
2024-01-09T06:46:11.189Z,7.00
2024-01-09T06:48:38.011Z,7.40
2024-01-09T06:51:05.081Z,5.32
2024-01-09T06:53:31.815Z,4.70
2024-01-09T06:55:58.664Z,6.15
2024-01-09T06:58:25.326Z,4.28
2024-01-09T07:00:52.245Z,5.05
2024-01-09T07:03:18.970Z,6.78
2024-01-09T07:05:46.692Z,6.25
2024-01-09T07:08:13.705Z,5.18
2024-01-09T07:10:41.178Z,7.63
2024-01-09T07:13:10.016Z,6.53
2024-01-09T07:15:37.737Z,5.20
2024-01-09T07:18:05.027Z,5.15
2024-01-09T07:20:31.792Z,5.65
2024-01-09T07:23:02.693Z,7.78
2024-01-09T07:25:36.374Z,5.43
2024-01-09T07:28:03.400Z,4.28
2024-01-09T07:30:30.180Z,6.17
2024-01-09T07:32:57.356Z,7.00
2024-01-09T07:35:24.120Z,7.30
2024-01-09T07:37:51.042Z,11.15
2024-01-09T07:40:17.682Z,3.63
2024-01-09T07:42:49.328Z,4.43
2024-01-09T07:47:51.402Z,6.88
2024-01-09T07:50:18.194Z,6.47
2024-01-09T07:52:44.968Z,10.82
2024-01-09T07:55:12.190Z,5.22
2024-01-09T07:57:38.862Z,5.80
2024-01-09T08:00:06.115Z,3.88
2024-01-09T08:02:33.107Z,7.68
2024-01-09T08:04:59.873Z,5.57
2024-01-09T08:07:26.609Z,4.97
2024-01-09T08:09:53.257Z,4.55
2024-01-09T08:12:19.876Z,4.07
2024-01-09T08:14:48.522Z,5.75
2024-01-09T08:17:15.233Z,3.28
2024-01-09T08:19:42.206Z,6.25
2024-01-09T08:22:08.883Z,5.07
2024-01-09T08:24:35.563Z,5.22
2024-01-09T08:27:02.227Z,5.43
2024-01-09T08:29:28.938Z,6.28
2024-01-09T08:31:55.659Z,7.53
2024-01-09T08:34:22.436Z,6.70
2024-01-09T08:36:50.179Z,4.95
2024-01-09T08:39:16.921Z,6.85
2024-01-09T08:41:44.060Z,9.50
2024-01-09T08:44:10.960Z,5.60
2024-01-09T08:46:37.638Z,5.10
2024-01-09T08:49:04.524Z,5.45
2024-01-09T08:51:31.465Z,6.75
2024-01-09T08:53:58.389Z,6.50
2024-01-09T08:56:25.193Z,7.43
2024-01-09T08:58:51.856Z,4.88
2024-01-09T09:01:22.267Z,7.90
2024-01-09T09:03:49.504Z,11.77
2024-01-09T09:06:18.662Z,5.90
2024-01-09T09:08:45.710Z,3.80
2024-01-09T09:11:18.910Z,4.18
2024-01-09T09:13:45.701Z,4.60
2024-01-09T09:16:13.188Z,3.78
2024-01-09T09:18:39.986Z,4.78
2024-01-09T09:21:07.256Z,10.90
2024-01-09T09:23:34.615Z,4.85
2024-01-09T09:26:02.082Z,7.18
2024-01-09T09:28:37.284Z,4.50
2024-01-09T09:31:12.289Z,5.28
2024-01-09T09:33:39.191Z,5.30
2024-01-09T09:36:07.275Z,3.97
2024-01-09T09:38:34.995Z,4.60
2024-01-09T09:41:08.540Z,5.55
2024-01-09T09:43:39.654Z,5.90
2024-01-09T09:46:12.615Z,9.07
2024-01-09T09:48:40.424Z,5.30
2024-01-09T09:51:09.498Z,6.10
2024-01-09T09:53:37.370Z,11.95
2024-01-09T09:56:04.437Z,6.03
2024-01-09T09:58:32.674Z,6.35
2024-01-09T10:01:00.888Z,9.23
2024-01-09T10:03:36.346Z,5.85
2024-01-09T10:06:09.137Z,6.68
2024-01-09T10:08:36.245Z,5.93
2024-01-09T10:11:03.299Z,9.13
2024-01-09T10:13:30.375Z,7.10
2024-01-09T10:15:58.484Z,4.63
2024-01-09T10:18:29.995Z,5.35
2024-01-09T10:20:58.596Z,5.53
2024-01-09T10:23:26.265Z,5.65
2024-01-09T10:25:54.092Z,6.22
2024-01-09T10:28:21.148Z,6.75
2024-01-09T10:30:48.712Z,5.43
2024-01-09T10:33:15.926Z,4.50
2024-01-09T10:35:43.138Z,7.55
2024-01-09T10:38:10.579Z,7.78
2024-01-09T10:40:37.722Z,7.40
2024-01-09T10:43:04.992Z,6.82
2024-01-09T10:45:32.374Z,7.05
2024-01-09T10:47:59.868Z,4.18
2024-01-09T10:50:27.004Z,7.50
2024-01-09T10:52:53.852Z,3.92
2024-01-09T10:55:24.272Z,6.45
2024-01-09T10:57:51.671Z,7.85
2024-01-09T11:00:20.234Z,7.20
2024-01-09T11:02:47.207Z,5.70
2024-01-09T11:05:15.239Z,9.48
2024-01-09T11:07:48.421Z,5.30
2024-01-09T11:10:21.191Z,5.65
2024-01-09T11:12:52.391Z,6.05
2024-01-09T11:15:29.850Z,6.15
2024-01-09T11:18:03.019Z,5.40
2024-01-09T11:20:30.731Z,5.43
2024-01-09T11:22:57.470Z,9.68
2024-01-09T11:25:29.904Z,5.32
2024-01-09T11:27:57.304Z,8.23
2024-01-09T11:30:28.394Z,5.95
2024-01-09T11:33:29.642Z,7.10
2024-01-09T11:35:56.585Z,6.28
2024-01-09T11:38:25.244Z,6.40
2024-01-09T11:40:53.819Z,6.63
2024-01-09T11:43:20.455Z,5.05
2024-01-09T11:45:47.416Z,7.65
2024-01-09T11:48:15.271Z,6.15
2024-01-09T11:50:42.442Z,9.52
2024-01-09T11:53:10.234Z,7.85
2024-01-09T11:55:37.503Z,8.00
2024-01-09T11:58:05.685Z,6.63
2024-01-09T12:00:33.206Z,7.20
2024-01-09T12:03:01.506Z,5.68
2024-01-09T12:05:28.778Z,6.68
2024-01-09T12:07:55.455Z,7.40
2024-01-09T12:10:30.592Z,11.15
2024-01-09T12:13:05.017Z,5.63
2024-01-09T12:15:31.723Z,9.30
2024-01-09T12:17:59.282Z,5.75
2024-01-09T12:20:26.895Z,6.57
2024-01-09T12:22:55.204Z,6.30
2024-01-09T12:25:22.403Z,8.13
2024-01-09T12:27:49.210Z,5.50
2024-01-09T12:30:16.157Z,6.45
2024-01-09T12:32:43.181Z,5.88
2024-01-09T12:35:10.440Z,7.55
2024-01-09T12:37:37.269Z,7.35
2024-01-09T12:40:11.057Z,4.75
2024-01-09T12:42:38.151Z,7.47
2024-01-09T12:45:05.382Z,6.97
2024-01-09T12:47:32.193Z,6.63
2024-01-09T12:50:04.219Z,7.45
2024-01-09T12:52:32.992Z,7.18
2024-01-09T12:55:04.678Z,6.05
2024-01-09T12:57:32.402Z,4.70
2024-01-09T12:59:59.184Z,6.75
2024-01-09T13:02:26.351Z,6.57
2024-01-09T13:04:54.622Z,8.65
2024-01-09T13:07:21.631Z,4.07
2024-01-09T13:09:49.160Z,8.15
2024-01-09T13:12:15.934Z,7.28
2024-01-09T13:14:42.870Z,7.72
2024-01-09T13:17:11.192Z,6.00
2024-01-09T13:19:37.931Z,7.68
2024-01-09T13:24:35.925Z,5.68
2024-01-09T13:27:05.280Z,6.15
2024-01-09T13:32:02.457Z,8.75
2024-01-09T13:34:29.526Z,5.60
2024-01-09T13:36:58.293Z,7.82
2024-01-09T13:39:25.812Z,7.82
2024-01-09T13:41:52.869Z,8.75
2024-01-09T13:44:20.911Z,5.90
2024-01-09T13:46:50.280Z,6.22
2024-01-09T13:49:17.324Z,5.93
2024-01-09T13:51:52.384Z,7.53
2024-01-09T13:54:26.130Z,5.88
2024-01-09T13:56:53.511Z,7.28
2024-01-09T13:59:20.535Z,6.63
2024-01-09T14:01:47.280Z,6.75
2024-01-09T14:04:17.798Z,8.07
2024-01-09T14:06:46.938Z,7.07
2024-01-09T14:09:14.060Z,9.80
2024-01-09T14:11:41.122Z,6.07
2024-01-09T14:14:11.413Z,6.85
2024-01-09T14:16:38.923Z,5.57
2024-01-09T14:19:06.572Z,6.45
2024-01-09T14:21:33.820Z,6.57
2024-01-09T14:24:00.968Z,8.45
2024-01-09T14:26:27.741Z,6.13
2024-01-09T14:28:54.560Z,9.93
2024-01-09T14:31:21.262Z,7.95
2024-01-09T14:33:48.345Z,10.48
2024-01-09T14:36:15.033Z,11.35
2024-01-09T14:38:41.815Z,9.10
2024-01-09T14:41:11.398Z,7.38
2024-01-09T14:43:42.215Z,6.55
2024-01-09T14:46:14.566Z,8.48
2024-01-09T14:48:43.446Z,6.47
2024-01-09T14:51:11.235Z,11.35
2024-01-09T14:53:37.873Z,5.47
2024-01-09T14:56:04.878Z,9.60
2024-01-09T14:58:31.739Z,10.13
2024-01-09T15:01:00.475Z,5.88
2024-01-09T15:03:27.635Z,7.32
2024-01-09T15:05:54.521Z,9.63
2024-01-09T15:08:21.261Z,7.03
2024-01-09T15:10:48.095Z,7.25
2024-01-09T15:13:14.856Z,7.35
2024-01-09T15:15:41.496Z,8.27
2024-01-09T15:18:08.464Z,7.90
2024-01-09T15:20:36.223Z,8.38
2024-01-09T15:23:04.609Z,10.63
2024-01-09T15:25:32.277Z,8.57
2024-01-09T15:27:59.810Z,9.75
2024-01-09T15:30:26.478Z,12.57
2024-01-09T15:32:53.424Z,7.60
2024-01-09T15:35:20.283Z,12.30
2024-01-09T15:37:47.010Z,6.60
2024-01-09T15:40:15.078Z,9.48
2024-01-09T15:42:42.329Z,10.43
2024-01-09T15:45:13.838Z,9.73
2024-01-09T15:47:42.303Z,9.00
2024-01-09T15:50:10.684Z,8.07
2024-01-09T15:52:37.737Z,8.57
2024-01-09T15:55:04.697Z,10.98
2024-01-09T15:57:31.529Z,6.57
2024-01-09T15:59:58.178Z,11.77
2024-01-09T16:02:25.086Z,8.73
2024-01-09T16:04:51.831Z,8.05
2024-01-09T16:07:18.547Z,11.02
2024-01-09T16:09:45.257Z,8.20
2024-01-09T16:12:11.980Z,10.80
2024-01-09T16:14:38.929Z,8.60
2024-01-09T16:17:05.872Z,8.52
2024-01-09T16:19:35.314Z,6.97
2024-01-09T16:22:03.177Z,9.95
2024-01-09T16:24:29.861Z,7.05
2024-01-09T16:26:56.476Z,9.02
2024-01-09T16:29:23.143Z,7.47
2024-01-09T16:31:49.939Z,6.78
2024-01-09T16:34:16.762Z,8.60
2024-01-09T16:36:43.404Z,7.70
2024-01-09T16:39:10.213Z,6.18
2024-01-09T16:41:36.843Z,8.85
2024-01-09T16:44:05.291Z,7.63
2024-01-09T16:46:34.040Z,8.13
2024-01-09T16:49:01.029Z,8.65
2024-01-09T16:51:27.735Z,9.32
2024-01-09T16:53:55.040Z,9.15
2024-01-09T16:56:22.449Z,9.27
2024-01-09T16:58:53.731Z,8.88
2024-01-09T17:01:24.499Z,10.77
2024-01-09T17:03:51.940Z,9.43
2024-01-09T17:06:19.264Z,9.25
2024-01-09T17:08:46.199Z,8.65
2024-01-09T17:11:15.298Z,8.52
2024-01-09T17:13:43.342Z,6.50
2024-01-09T17:16:10.423Z,9.43
2024-01-09T17:18:43.902Z,13.45
2024-01-09T17:21:14.459Z,7.82
2024-01-09T17:23:42.225Z,7.10
2024-01-09T17:26:09.364Z,7.13
2024-01-09T17:28:36.368Z,9.90
2024-01-09T17:31:03.756Z,9.45
2024-01-09T17:33:30.880Z,7.85
2024-01-09T17:35:57.968Z,7.68
2024-01-09T17:38:24.702Z,11.50
2024-01-09T17:40:51.348Z,6.00
2024-01-09T17:43:18.057Z,8.43
2024-01-09T17:45:45.100Z,7.55
2024-01-09T17:48:11.899Z,9.32
2024-01-09T17:50:40.220Z,8.88
2024-01-09T17:53:06.996Z,5.03
2024-01-09T17:55:36.435Z,8.73
2024-01-09T18:00:33.147Z,9.02
2024-01-09T18:03:00.282Z,8.48
2024-01-09T18:05:27.659Z,7.13
2024-01-09T18:07:54.470Z,8.15
2024-01-09T18:10:21.962Z,8.38
2024-01-09T18:12:49.244Z,6.40
2024-01-09T18:15:16.337Z,8.27
2024-01-09T18:17:43.264Z,8.40
2024-01-09T18:20:10.780Z,9.07
2024-01-09T18:22:37.799Z,10.73
2024-01-09T18:25:06.403Z,7.63
2024-01-09T18:27:34.650Z,13.80
2024-01-09T18:30:02.139Z,9.05
2024-01-09T18:32:31.353Z,8.38
2024-01-09T18:37:25.726Z,7.55
2024-01-09T18:39:53.656Z,8.85
2024-01-09T18:42:21.019Z,8.98
2024-01-09T18:44:47.764Z,9.80
2024-01-09T18:47:15.270Z,9.30
2024-01-09T18:49:42.481Z,5.40
2024-01-09T18:52:09.296Z,7.95
2024-01-09T18:54:36.224Z,9.85
2024-01-09T18:57:03.080Z,16.08
2024-01-09T18:59:30.254Z,11.32
2024-01-09T19:01:58.071Z,8.70
2024-01-09T19:04:25.076Z,9.98
2024-01-09T19:06:51.779Z,8.77
2024-01-09T19:09:18.540Z,8.20
2024-01-09T19:11:45.413Z,9.60
2024-01-09T19:14:12.399Z,8.35
2024-01-09T19:16:48.574Z,8.27
2024-01-09T19:19:16.948Z,10.18
2024-01-09T19:21:45.816Z,9.73
2024-01-09T19:24:12.828Z,9.85
2024-01-09T19:26:40.645Z,7.97
2024-01-09T19:29:08.424Z,8.48
2024-01-09T19:31:43.881Z,9.25
2024-01-09T19:34:13.495Z,7.85
2024-01-09T19:36:45.566Z,12.13
2024-01-09T19:39:12.234Z,9.90
2024-01-09T19:41:38.938Z,8.77
2024-01-09T19:44:05.676Z,11.10
2024-01-09T19:46:32.428Z,11.35
2024-01-09T19:48:59.531Z,9.60
2024-01-09T19:51:26.468Z,8.73
2024-01-09T19:53:53.108Z,9.75
2024-01-09T19:56:27.740Z,11.60
2024-01-09T19:58:54.427Z,10.60
2024-01-09T20:01:21.117Z,12.65
2024-01-09T20:03:49.303Z,11.48
2024-01-09T20:06:25.065Z,10.25
2024-01-09T20:08:52.674Z,9.95
2024-01-09T20:11:23.259Z,9.68
2024-01-09T20:13:52.860Z,9.43
2024-01-09T20:16:23.296Z,6.88
2024-01-09T20:18:50.603Z,14.35
2024-01-09T20:21:17.740Z,11.05
2024-01-09T20:23:45.340Z,11.25
2024-01-09T20:26:27.262Z,7.70
2024-01-09T20:28:54.852Z,9.60
2024-01-09T20:31:22.406Z,12.35
2024-01-09T20:33:50.053Z,15.32
2024-01-09T20:36:16.951Z,17.38
2024-01-09T20:38:44.271Z,18.25
2024-01-09T20:41:11.377Z,11.13
2024-01-09T20:43:38.690Z,14.85
2024-01-09T20:46:05.963Z,13.57
2024-01-09T20:48:33.336Z,16.58
2024-01-09T20:51:00.467Z,20.60
2024-01-09T20:53:27.497Z,13.38
2024-01-09T20:55:54.228Z,13.55
2024-01-09T20:58:21.025Z,11.05
2024-01-09T21:00:49.385Z,14.63
2024-01-09T21:03:16.687Z,16.90
2024-01-09T21:05:44.161Z,16.15
2024-01-09T21:08:11.275Z,16.58
2024-01-09T21:10:42.775Z,13.30
2024-01-09T21:13:09.540Z,13.52
2024-01-09T21:15:41.300Z,11.98
2024-01-09T21:18:12.200Z,19.80
2024-01-09T21:20:39.491Z,12.88
2024-01-09T21:23:06.481Z,16.77
2024-01-09T21:25:35.370Z,16.05
2024-01-09T21:28:02.702Z,12.52
2024-01-09T21:30:29.469Z,15.00
2024-01-09T21:32:56.182Z,19.27
2024-01-09T21:35:23.361Z,13.75
2024-01-09T21:37:51.959Z,14.27
2024-01-09T21:40:18.652Z,15.13
2024-01-09T21:42:45.475Z,10.52
2024-01-09T21:45:13.542Z,17.52
2024-01-09T21:47:44.366Z,13.68
2024-01-09T21:50:12.411Z,13.50
2024-01-09T21:52:39.537Z,13.60
2024-01-09T21:55:09.404Z,15.05
2024-01-09T21:57:37.257Z,17.85
2024-01-09T22:00:06.811Z,13.10
2024-01-09T22:05:01.014Z,16.95
2024-01-09T22:07:28.300Z,13.68
2024-01-09T22:09:54.931Z,14.95
2024-01-09T22:12:21.566Z,14.52
2024-01-09T22:14:48.188Z,14.32
2024-01-09T22:17:14.880Z,12.70
2024-01-09T22:19:41.553Z,11.45
2024-01-09T22:22:09.351Z,15.95
2024-01-09T22:24:35.989Z,20.70
2024-01-09T22:27:02.728Z,14.38
2024-01-09T22:29:29.377Z,12.75
2024-01-09T22:31:57.964Z,19.50
2024-01-09T22:34:25.732Z,14.90
2024-01-09T22:36:52.492Z,15.20
2024-01-09T22:39:19.206Z,12.15
2024-01-09T22:41:46.020Z,20.67
2024-01-09T22:44:12.900Z,16.45
2024-01-09T22:46:39.737Z,15.02
2024-01-09T22:49:06.859Z,14.25
2024-01-09T22:51:33.731Z,22.20
2024-01-09T22:54:00.371Z,17.15
2024-01-09T22:56:27.529Z,12.18
2024-01-09T22:58:54.569Z,13.30
2024-01-09T23:01:21.286Z,11.52
2024-01-09T23:03:47.942Z,18.88
2024-01-09T23:06:15.284Z,15.00
2024-01-09T23:08:41.997Z,20.60
2024-01-09T23:11:08.713Z,16.70
2024-01-09T23:13:40.304Z,13.20
2024-01-09T23:16:07.069Z,13.40
2024-01-09T23:18:33.892Z,17.88
2024-01-09T23:21:00.698Z,22.55
2024-01-09T23:23:27.318Z,15.60
2024-01-09T23:25:55.036Z,12.77
2024-01-09T23:28:21.695Z,15.93
2024-01-09T23:30:48.330Z,18.25
2024-01-09T23:33:15.103Z,19.40
2024-01-09T23:35:41.945Z,23.55
2024-01-09T23:38:10.157Z,15.52
2024-01-09T23:40:40.736Z,20.63
2024-01-09T23:43:07.825Z,12.80
2024-01-09T23:45:34.539Z,20.33
2024-01-09T23:48:01.325Z,25.05
2024-01-09T23:50:28.127Z,18.08
2024-01-09T23:52:55.330Z,13.93
2024-01-09T23:55:21.987Z,15.90
2024-01-09T23:57:48.723Z,20.13
